sensor_id;sensor_type;location;lat;lon;timestamp;temperature;humidity
4425;DHT22;2225;53.568;13.266;2023-06-01T00:02:24;18.20;81.50
4425;DHT22;2225;53.568;13.266;2023-06-01T00:04:53;18.20;81.90
4425;DHT22;2225;53.568;13.266;2023-06-01T00:07:19;18.20;82.20
4425;DHT22;2225;53.568;13.266;2023-06-01T00:09:47;18.10;82.10
4425;DHT22;2225;53.568;13.266;2023-06-01T00:12:14;18.10;82.40
4425;DHT22;2225;53.568;13.266;2023-06-01T00:14:41;18.00;82.70
4425;DHT22;2225;53.568;13.266;2023-06-01T00:17:08;18.00;83.00
4425;DHT22;2225;53.568;13.266;2023-06-01T00:19:36;17.90;83.50
4425;DHT22;2225;53.568;13.266;2023-06-01T00:22:05;17.90;83.70
4425;DHT22;2225;53.568;13.266;2023-06-01T00:24:34;17.90;83.80
4425;DHT22;2225;53.568;13.266;2023-06-01T00:27:01;17.90;84.50
4425;DHT22;2225;53.568;13.266;2023-06-01T00:29:29;17.80;84.60
4425;DHT22;2225;53.568;13.266;2023-06-01T00:31:56;17.80;84.90
4425;DHT22;2225;53.568;13.266;2023-06-01T00:34:23;17.80;85.20
4425;DHT22;2225;53.568;13.266;2023-06-01T00:36:50;17.70;85.40
4425;DHT22;2225;53.568;13.266;2023-06-01T00:39:17;17.70;85.60
4425;DHT22;2225;53.568;13.266;2023-06-01T00:41:44;17.70;86.10
4425;DHT22;2225;53.568;13.266;2023-06-01T00:44:11;17.60;86.10
4425;DHT22;2225;53.568;13.266;2023-06-01T00:46:38;17.60;86.10
4425;DHT22;2225;53.568;13.266;2023-06-01T00:49:05;17.60;86.70
4425;DHT22;2225;53.568;13.266;2023-06-01T00:51:33;17.50;87.00
4425;DHT22;2225;53.568;13.266;2023-06-01T00:54:02;17.50;87.00
4425;DHT22;2225;53.568;13.266;2023-06-01T00:56:30;17.50;87.10
4425;DHT22;2225;53.568;13.266;2023-06-01T00:58:58;17.50;87.20
4425;DHT22;2225;53.568;13.266;2023-06-01T01:01:27;17.50;87.10
4425;DHT22;2225;53.568;13.266;2023-06-01T01:03:54;17.50;87.10
4425;DHT22;2225;53.568;13.266;2023-06-01T01:06:39;17.50;87.10
4425;DHT22;2225;53.568;13.266;2023-06-01T01:09:26;17.50;87.80
4425;DHT22;2225;53.568;13.266;2023-06-01T01:12:02;17.50;88.00
4425;DHT22;2225;53.568;13.266;2023-06-01T01:14:43;17.40;88.90
4425;DHT22;2225;53.568;13.266;2023-06-01T01:17:26;17.40;89.10
4425;DHT22;2225;53.568;13.266;2023-06-01T01:20:06;17.40;89.40
4425;DHT22;2225;53.568;13.266;2023-06-01T01:25:23;17.30;89.20
4425;DHT22;2225;53.568;13.266;2023-06-01T01:31:04;17.20;90.00
4425;DHT22;2225;53.568;13.266;2023-06-01T01:33:33;17.30;89.50
4425;DHT22;2225;53.568;13.266;2023-06-01T01:36:01;17.20;89.60
4425;DHT22;2225;53.568;13.266;2023-06-01T01:38:28;17.20;90.00
4425;DHT22;2225;53.568;13.266;2023-06-01T01:40:55;17.20;90.00
4425;DHT22;2225;53.568;13.266;2023-06-01T01:43:23;17.20;90.10
4425;DHT22;2225;53.568;13.266;2023-06-01T01:45:57;17.20;90.20
4425;DHT22;2225;53.568;13.266;2023-06-01T01:48:36;17.20;90.30
4425;DHT22;2225;53.568;13.266;2023-06-01T01:51:12;17.20;90.30
4425;DHT22;2225;53.568;13.266;2023-06-01T01:53:43;17.20;90.40
4425;DHT22;2225;53.568;13.266;2023-06-01T01:56:13;17.30;90.30
4425;DHT22;2225;53.568;13.266;2023-06-01T01:58:41;17.30;90.30
4425;DHT22;2225;53.568;13.266;2023-06-01T02:01:09;17.30;90.30
4425;DHT22;2225;53.568;13.266;2023-06-01T02:03:36;17.30;90.40
4425;DHT22;2225;53.568;13.266;2023-06-01T02:06:03;17.30;90.30
4425;DHT22;2225;53.568;13.266;2023-06-01T02:08:31;17.40;90.40
4425;DHT22;2225;53.568;13.266;2023-06-01T02:10:58;17.40;90.20
4425;DHT22;2225;53.568;13.266;2023-06-01T02:13:25;17.40;90.20
4425;DHT22;2225;53.568;13.266;2023-06-01T02:15:52;17.50;90.20
4425;DHT22;2225;53.568;13.266;2023-06-01T02:18:19;17.50;90.20
4425;DHT22;2225;53.568;13.266;2023-06-01T02:20:47;17.50;90.20
4425;DHT22;2225;53.568;13.266;2023-06-01T02:23:13;17.40;90.10
4425;DHT22;2225;53.568;13.266;2023-06-01T02:25:41;17.40;90.10
4425;DHT22;2225;53.568;13.266;2023-06-01T02:28:08;17.40;90.10
4425;DHT22;2225;53.568;13.266;2023-06-01T02:30:37;17.40;90.10
4425;DHT22;2225;53.568;13.266;2023-06-01T02:33:04;17.40;90.00
4425;DHT22;2225;53.568;13.266;2023-06-01T02:35:32;17.50;90.30
4425;DHT22;2225;53.568;13.266;2023-06-01T02:37:59;17.50;89.80
4425;DHT22;2225;53.568;13.266;2023-06-01T02:40:26;17.50;89.70
4425;DHT22;2225;53.568;13.266;2023-06-01T02:42:53;17.60;89.70
4425;DHT22;2225;53.568;13.266;2023-06-01T02:45:21;17.60;89.60
4425;DHT22;2225;53.568;13.266;2023-06-01T02:47:48;17.60;89.40
4425;DHT22;2225;53.568;13.266;2023-06-01T02:50:16;17.50;89.10
4425;DHT22;2225;53.568;13.266;2023-06-01T02:52:46;17.50;88.90
4425;DHT22;2225;53.568;13.266;2023-06-01T02:55:13;17.50;88.90
4425;DHT22;2225;53.568;13.266;2023-06-01T02:57:59;17.50;88.90
4425;DHT22;2225;53.568;13.266;2023-06-01T03:00:30;17.50;88.80
4425;DHT22;2225;53.568;13.266;2023-06-01T03:02:57;17.40;89.00
4425;DHT22;2225;53.568;13.266;2023-06-01T03:05:24;17.50;89.10
4425;DHT22;2225;53.568;13.266;2023-06-01T03:08:11;17.50;88.90
4425;DHT22;2225;53.568;13.266;2023-06-01T03:10:38;17.50;88.90
4425;DHT22;2225;53.568;13.266;2023-06-01T03:13:11;17.50;88.70
4425;DHT22;2225;53.568;13.266;2023-06-01T03:15:39;17.50;88.50
4425;DHT22;2225;53.568;13.266;2023-06-01T03:18:06;17.50;88.30
4425;DHT22;2225;53.568;13.266;2023-06-01T03:20:34;17.50;88.00
4425;DHT22;2225;53.568;13.266;2023-06-01T03:23:01;17.50;87.90
4425;DHT22;2225;53.568;13.266;2023-06-01T03:25:28;17.50;87.80
4425;DHT22;2225;53.568;13.266;2023-06-01T03:27:55;17.40;87.80
4425;DHT22;2225;53.568;13.266;2023-06-01T03:30:22;17.40;87.70
4425;DHT22;2225;53.568;13.266;2023-06-01T03:32:50;17.40;87.50
4425;DHT22;2225;53.568;13.266;2023-06-01T03:35:17;17.40;87.40
4425;DHT22;2225;53.568;13.266;2023-06-01T03:37:46;17.30;87.40
4425;DHT22;2225;53.568;13.266;2023-06-01T03:40:16;17.30;87.60
4425;DHT22;2225;53.568;13.266;2023-06-01T03:42:46;17.30;87.50
4425;DHT22;2225;53.568;13.266;2023-06-01T03:45:15;17.20;87.30
4425;DHT22;2225;53.568;13.266;2023-06-01T03:47:43;17.20;87.30
4425;DHT22;2225;53.568;13.266;2023-06-01T03:50:10;17.20;87.10
4425;DHT22;2225;53.568;13.266;2023-06-01T03:52:38;17.20;87.00
4425;DHT22;2225;53.568;13.266;2023-06-01T03:55:06;17.10;87.00
4425;DHT22;2225;53.568;13.266;2023-06-01T03:57:57;17.10;87.10
4425;DHT22;2225;53.568;13.266;2023-06-01T04:00:25;17.10;87.00
4425;DHT22;2225;53.568;13.266;2023-06-01T04:02:59;17.10;87.00
4425;DHT22;2225;53.568;13.266;2023-06-01T04:05:28;17.10;87.10
4425;DHT22;2225;53.568;13.266;2023-06-01T04:07:56;17.10;87.10
4425;DHT22;2225;53.568;13.266;2023-06-01T04:10:23;17.10;87.10
4425;DHT22;2225;53.568;13.266;2023-06-01T04:12:50;17.10;86.70
4425;DHT22;2225;53.568;13.266;2023-06-01T04:15:21;17.10;86.60
4425;DHT22;2225;53.568;13.266;2023-06-01T04:17:48;17.10;86.40
4425;DHT22;2225;53.568;13.266;2023-06-01T04:20:17;17.10;86.30
4425;DHT22;2225;53.568;13.266;2023-06-01T04:22:45;17.20;86.40
4425;DHT22;2225;53.568;13.266;2023-06-01T04:25:14;17.10;86.30
4425;DHT22;2225;53.568;13.266;2023-06-01T04:27:48;17.10;86.40
4425;DHT22;2225;53.568;13.266;2023-06-01T04:30:18;17.20;86.30
4425;DHT22;2225;53.568;13.266;2023-06-01T04:32:47;17.20;86.20
4425;DHT22;2225;53.568;13.266;2023-06-01T04:35:16;17.20;86.20
4425;DHT22;2225;53.568;13.266;2023-06-01T04:37:44;17.20;86.00
4425;DHT22;2225;53.568;13.266;2023-06-01T04:40:12;17.20;85.80
4425;DHT22;2225;53.568;13.266;2023-06-01T04:42:42;17.20;85.70
4425;DHT22;2225;53.568;13.266;2023-06-01T04:45:17;17.20;85.60
4425;DHT22;2225;53.568;13.266;2023-06-01T04:47:45;17.20;85.40
4425;DHT22;2225;53.568;13.266;2023-06-01T04:50:18;17.20;85.10
4425;DHT22;2225;53.568;13.266;2023-06-01T04:52:46;17.20;84.90
4425;DHT22;2225;53.568;13.266;2023-06-01T04:55:15;17.10;84.80
4425;DHT22;2225;53.568;13.266;2023-06-01T04:57:43;17.10;84.80
4425;DHT22;2225;53.568;13.266;2023-06-01T05:00:11;17.10;84.80
4425;DHT22;2225;53.568;13.266;2023-06-01T05:02:40;17.10;84.80
4425;DHT22;2225;53.568;13.266;2023-06-01T05:05:10;17.10;85.00
4425;DHT22;2225;53.568;13.266;2023-06-01T05:07:38;17.10;85.10
4425;DHT22;2225;53.568;13.266;2023-06-01T05:10:08;17.10;85.10
4425;DHT22;2225;53.568;13.266;2023-06-01T05:12:42;17.10;85.10
4425;DHT22;2225;53.568;13.266;2023-06-01T05:15:09;17.10;85.00
4425;DHT22;2225;53.568;13.266;2023-06-01T05:17:38;17.10;84.60
4425;DHT22;2225;53.568;13.266;2023-06-01T05:20:12;17.10;84.50
4425;DHT22;2225;53.568;13.266;2023-06-01T05:22:42;17.10;84.60
4425;DHT22;2225;53.568;13.266;2023-06-01T05:25:09;17.10;84.50
4425;DHT22;2225;53.568;13.266;2023-06-01T05:27:37;17.10;84.20
4425;DHT22;2225;53.568;13.266;2023-06-01T05:30:05;17.10;84.20
4425;DHT22;2225;53.568;13.266;2023-06-01T05:32:33;17.20;84.20
4425;DHT22;2225;53.568;13.266;2023-06-01T05:35:13;17.20;84.10
4425;DHT22;2225;53.568;13.266;2023-06-01T05:37:43;17.20;84.00
4425;DHT22;2225;53.568;13.266;2023-06-01T05:40:12;17.20;83.90
4425;DHT22;2225;53.568;13.266;2023-06-01T05:42:39;17.20;83.80
4425;DHT22;2225;53.568;13.266;2023-06-01T05:45:07;17.20;83.70
4425;DHT22;2225;53.568;13.266;2023-06-01T05:47:34;17.30;83.70
4425;DHT22;2225;53.568;13.266;2023-06-01T05:50:01;17.30;83.60
4425;DHT22;2225;53.568;13.266;2023-06-01T05:52:30;17.30;83.70
4425;DHT22;2225;53.568;13.266;2023-06-01T05:54:57;17.40;83.50
4425;DHT22;2225;53.568;13.266;2023-06-01T05:57:24;17.50;83.70
4425;DHT22;2225;53.568;13.266;2023-06-01T05:59:51;17.50;83.40
4425;DHT22;2225;53.568;13.266;2023-06-01T06:02:20;17.50;82.80
4425;DHT22;2225;53.568;13.266;2023-06-01T06:04:47;17.50;82.70
4425;DHT22;2225;53.568;13.266;2023-06-01T06:07:14;17.50;82.70
4425;DHT22;2225;53.568;13.266;2023-06-01T06:09:41;17.50;82.50
4425;DHT22;2225;53.568;13.266;2023-06-01T06:12:08;17.60;82.50
4425;DHT22;2225;53.568;13.266;2023-06-01T06:14:35;17.60;82.50
4425;DHT22;2225;53.568;13.266;2023-06-01T06:17:02;17.60;82.50
4425;DHT22;2225;53.568;13.266;2023-06-01T06:19:29;17.60;82.30
4425;DHT22;2225;53.568;13.266;2023-06-01T06:21:56;17.60;82.40
4425;DHT22;2225;53.568;13.266;2023-06-01T06:24:23;17.70;82.40
4425;DHT22;2225;53.568;13.266;2023-06-01T06:26:50;17.70;82.30
4425;DHT22;2225;53.568;13.266;2023-06-01T06:29:17;17.70;82.20
4425;DHT22;2225;53.568;13.266;2023-06-01T06:31:44;17.70;82.00
4425;DHT22;2225;53.568;13.266;2023-06-01T06:34:12;17.70;81.90
4425;DHT22;2225;53.568;13.266;2023-06-01T06:36:39;17.70;81.60
4425;DHT22;2225;53.568;13.266;2023-06-01T06:39:06;17.70;81.20
4425;DHT22;2225;53.568;13.266;2023-06-01T06:41:33;17.70;80.80
4425;DHT22;2225;53.568;13.266;2023-06-01T06:44:00;17.70;81.00
4425;DHT22;2225;53.568;13.266;2023-06-01T06:46:27;17.80;80.90
4425;DHT22;2225;53.568;13.266;2023-06-01T06:48:54;17.80;80.90
4425;DHT22;2225;53.568;13.266;2023-06-01T06:51:21;17.90;80.90
4425;DHT22;2225;53.568;13.266;2023-06-01T06:53:48;17.90;80.80
4425;DHT22;2225;53.568;13.266;2023-06-01T06:56:16;17.90;80.90
4425;DHT22;2225;53.568;13.266;2023-06-01T06:58:44;18.00;80.90
4425;DHT22;2225;53.568;13.266;2023-06-01T07:01:29;18.10;80.70
4425;DHT22;2225;53.568;13.266;2023-06-01T07:03:56;18.10;80.60
4425;DHT22;2225;53.568;13.266;2023-06-01T07:06:23;18.20;80.40
4425;DHT22;2225;53.568;13.266;2023-06-01T07:08:50;18.30;80.30
4425;DHT22;2225;53.568;13.266;2023-06-01T07:11:18;18.30;80.00
4425;DHT22;2225;53.568;13.266;2023-06-01T07:13:45;18.40;79.90
4425;DHT22;2225;53.568;13.266;2023-06-01T07:16:12;18.40;79.30
4425;DHT22;2225;53.568;13.266;2023-06-01T07:18:39;18.50;79.40
4425;DHT22;2225;53.568;13.266;2023-06-01T07:21:06;18.50;79.30
4425;DHT22;2225;53.568;13.266;2023-06-01T07:23:33;18.50;79.20
4425;DHT22;2225;53.568;13.266;2023-06-01T07:26:00;18.50;78.80
4425;DHT22;2225;53.568;13.266;2023-06-01T07:28:27;18.50;78.90
4425;DHT22;2225;53.568;13.266;2023-06-01T07:30:55;18.50;78.80
4425;DHT22;2225;53.568;13.266;2023-06-01T07:33:22;18.50;78.60
4425;DHT22;2225;53.568;13.266;2023-06-01T07:35:49;18.50;78.50
4425;DHT22;2225;53.568;13.266;2023-06-01T07:38:19;18.50;78.20
4425;DHT22;2225;53.568;13.266;2023-06-01T07:40:46;18.50;78.20
4425;DHT22;2225;53.568;13.266;2023-06-01T07:43:13;18.40;77.30
4425;DHT22;2225;53.568;13.266;2023-06-01T07:45:40;18.40;77.20
4425;DHT22;2225;53.568;13.266;2023-06-01T07:48:07;18.40;77.40
4425;DHT22;2225;53.568;13.266;2023-06-01T07:50:36;18.40;77.40
4425;DHT22;2225;53.568;13.266;2023-06-01T07:53:03;18.40;77.50
4425;DHT22;2225;53.568;13.266;2023-06-01T07:55:30;18.40;77.70
4425;DHT22;2225;53.568;13.266;2023-06-01T07:57:57;18.40;77.10
4425;DHT22;2225;53.568;13.266;2023-06-01T08:00:24;18.40;76.60
4425;DHT22;2225;53.568;13.266;2023-06-01T08:02:52;18.50;76.70
4425;DHT22;2225;53.568;13.266;2023-06-01T08:05:20;18.50;76.30
4425;DHT22;2225;53.568;13.266;2023-06-01T08:07:47;18.50;76.30
4425;DHT22;2225;53.568;13.266;2023-06-01T08:10:15;18.60;76.60
4425;DHT22;2225;53.568;13.266;2023-06-01T08:12:42;18.70;76.70
4425;DHT22;2225;53.568;13.266;2023-06-01T08:15:09;18.70;76.30
4425;DHT22;2225;53.568;13.266;2023-06-01T08:17:38;18.80;75.90
4425;DHT22;2225;53.568;13.266;2023-06-01T08:20:05;18.90;75.50
4425;DHT22;2225;53.568;13.266;2023-06-01T08:22:37;19.00;75.80
4425;DHT22;2225;53.568;13.266;2023-06-01T08:25:05;19.00;75.70
4425;DHT22;2225;53.568;13.266;2023-06-01T08:27:32;19.10;75.60
4425;DHT22;2225;53.568;13.266;2023-06-01T08:29:59;19.10;75.40
4425;DHT22;2225;53.568;13.266;2023-06-01T08:32:26;19.20;74.80
4425;DHT22;2225;53.568;13.266;2023-06-01T08:34:53;19.20;74.70
4425;DHT22;2225;53.568;13.266;2023-06-01T08:37:20;19.30;75.00
4425;DHT22;2225;53.568;13.266;2023-06-01T08:39:47;19.40;74.60
4425;DHT22;2225;53.568;13.266;2023-06-01T08:45:13;19.50;74.30
4425;DHT22;2225;53.568;13.266;2023-06-01T08:47:41;19.60;73.70
4425;DHT22;2225;53.568;13.266;2023-06-01T08:50:09;19.70;73.10
4425;DHT22;2225;53.568;13.266;2023-06-01T08:52:38;19.70;73.40
4425;DHT22;2225;53.568;13.266;2023-06-01T08:55:05;19.80;72.50
4425;DHT22;2225;53.568;13.266;2023-06-01T08:57:33;19.80;72.20
4425;DHT22;2225;53.568;13.266;2023-06-01T09:00:00;19.90;71.50
4425;DHT22;2225;53.568;13.266;2023-06-01T09:02:27;19.90;71.40
4425;DHT22;2225;53.568;13.266;2023-06-01T09:04:54;20.00;71.70
4425;DHT22;2225;53.568;13.266;2023-06-01T09:07:22;20.10;71.90
4425;DHT22;2225;53.568;13.266;2023-06-01T09:09:49;20.20;71.50
4425;DHT22;2225;53.568;13.266;2023-06-01T09:12:24;20.20;71.20
4425;DHT22;2225;53.568;13.266;2023-06-01T09:15:11;20.40;70.90
4425;DHT22;2225;53.568;13.266;2023-06-01T09:17:47;20.50;71.50
4425;DHT22;2225;53.568;13.266;2023-06-01T09:20:23;20.60;71.00
4425;DHT22;2225;53.568;13.266;2023-06-01T09:22:52;20.70;70.90
4425;DHT22;2225;53.568;13.266;2023-06-01T09:25:27;20.80;70.00
4425;DHT22;2225;53.568;13.266;2023-06-01T09:27:57;20.80;69.60
4425;DHT22;2225;53.568;13.266;2023-06-01T09:30:37;20.90;69.50
4425;DHT22;2225;53.568;13.266;2023-06-01T09:33:15;20.90;69.60
4425;DHT22;2225;53.568;13.266;2023-06-01T09:35:45;21.00;68.70
4425;DHT22;2225;53.568;13.266;2023-06-01T09:38:22;21.00;68.70
4425;DHT22;2225;53.568;13.266;2023-06-01T09:41:00;21.00;68.80
4425;DHT22;2225;53.568;13.266;2023-06-01T09:43:29;21.10;68.60
4425;DHT22;2225;53.568;13.266;2023-06-01T09:46:08;21.10;69.10
4425;DHT22;2225;53.568;13.266;2023-06-01T09:48:35;21.20;68.20
4425;DHT22;2225;53.568;13.266;2023-06-01T09:51:03;21.20;68.20
4425;DHT22;2225;53.568;13.266;2023-06-01T09:53:43;21.30;68.30
4425;DHT22;2225;53.568;13.266;2023-06-01T09:56:10;21.30;67.80
4425;DHT22;2225;53.568;13.266;2023-06-01T09:58:37;21.40;67.90
4425;DHT22;2225;53.568;13.266;2023-06-01T10:01:07;21.40;67.30
4425;DHT22;2225;53.568;13.266;2023-06-01T10:03:40;21.50;67.40
4425;DHT22;2225;53.568;13.266;2023-06-01T10:06:11;21.50;67.20
4425;DHT22;2225;53.568;13.266;2023-06-01T10:08:39;21.60;66.70
4425;DHT22;2225;53.568;13.266;2023-06-01T10:11:08;21.60;65.80
4425;DHT22;2225;53.568;13.266;2023-06-01T10:13:35;21.60;66.60
4425;DHT22;2225;53.568;13.266;2023-06-01T10:16:02;21.70;66.70
4425;DHT22;2225;53.568;13.266;2023-06-01T10:18:32;21.70;66.70
4425;DHT22;2225;53.568;13.266;2023-06-01T10:20:59;21.70;66.60
4425;DHT22;2225;53.568;13.266;2023-06-01T10:23:27;21.80;66.00
4425;DHT22;2225;53.568;13.266;2023-06-01T10:25:59;21.80;65.50
4425;DHT22;2225;53.568;13.266;2023-06-01T10:28:34;21.80;65.50
4425;DHT22;2225;53.568;13.266;2023-06-01T10:31:40;21.80;65.60
4425;DHT22;2225;53.568;13.266;2023-06-01T10:34:12;21.90;65.00
4425;DHT22;2225;53.568;13.266;2023-06-01T10:39:30;21.90;65.20
4425;DHT22;2225;53.568;13.266;2023-06-01T10:42:34;22.00;64.50
4425;DHT22;2225;53.568;13.266;2023-06-01T10:44:47;22.00;64.70
4425;DHT22;2225;53.568;13.266;2023-06-01T10:52:36;22.30;64.70
4425;DHT22;2225;53.568;13.266;2023-06-01T10:57:37;22.40;63.30
4425;DHT22;2225;53.568;13.266;2023-06-01T11:00:12;22.40;63.20
4425;DHT22;2225;53.568;13.266;2023-06-01T11:03:03;22.50;62.80
4425;DHT22;2225;53.568;13.266;2023-06-01T11:13:27;22.50;62.60
4425;DHT22;2225;53.568;13.266;2023-06-01T11:21:29;22.60;62.30
4425;DHT22;2225;53.568;13.266;2023-06-01T11:24:00;22.60;61.80
4425;DHT22;2225;53.568;13.266;2023-06-01T11:26:34;22.60;61.70
4425;DHT22;2225;53.568;13.266;2023-06-01T11:29:19;22.60;62.10
4425;DHT22;2225;53.568;13.266;2023-06-01T11:31:52;22.60;62.00
4425;DHT22;2225;53.568;13.266;2023-06-01T11:34:35;22.60;61.90
4425;DHT22;2225;53.568;13.266;2023-06-01T11:37:18;22.70;62.30
4425;DHT22;2225;53.568;13.266;2023-06-01T11:39:47;22.80;62.20
4425;DHT22;2225;53.568;13.266;2023-06-01T11:42:19;22.80;63.00
4425;DHT22;2225;53.568;13.266;2023-06-01T11:44:57;22.90;62.10
4425;DHT22;2225;53.568;13.266;2023-06-01T11:47:29;22.90;62.10
4425;DHT22;2225;53.568;13.266;2023-06-01T11:49:56;23.00;62.00
4425;DHT22;2225;53.568;13.266;2023-06-01T11:52:23;23.00;60.80
4425;DHT22;2225;53.568;13.266;2023-06-01T11:54:50;23.10;60.40
4425;DHT22;2225;53.568;13.266;2023-06-01T11:57:19;23.10;60.40
4425;DHT22;2225;53.568;13.266;2023-06-01T11:59:48;23.20;60.60
4425;DHT22;2225;53.568;13.266;2023-06-01T12:02:26;23.20;59.60
4425;DHT22;2225;53.568;13.266;2023-06-01T12:04:59;23.30;59.80
4425;DHT22;2225;53.568;13.266;2023-06-01T12:07:49;23.20;60.20
4425;DHT22;2225;53.568;13.266;2023-06-01T12:10:21;23.30;60.10
4425;DHT22;2225;53.568;13.266;2023-06-01T12:12:48;23.40;60.20
4425;DHT22;2225;53.568;13.266;2023-06-01T12:15:17;23.40;59.90
4425;DHT22;2225;53.568;13.266;2023-06-01T12:17:52;23.50;60.00
4425;DHT22;2225;53.568;13.266;2023-06-01T12:20:31;23.60;59.80
4425;DHT22;2225;53.568;13.266;2023-06-01T12:23:15;23.70;59.90
4425;DHT22;2225;53.568;13.266;2023-06-01T12:25:56;23.70;59.50
4425;DHT22;2225;53.568;13.266;2023-06-01T12:28:26;23.80;59.20
4425;DHT22;2225;53.568;13.266;2023-06-01T12:31:12;23.80;59.00
4425;DHT22;2225;53.568;13.266;2023-06-01T12:33:41;23.80;58.70
4425;DHT22;2225;53.568;13.266;2023-06-01T12:36:31;23.90;58.40
4425;DHT22;2225;53.568;13.266;2023-06-01T12:39:03;23.90;58.50
4425;DHT22;2225;53.568;13.266;2023-06-01T12:41:31;23.90;58.20
4425;DHT22;2225;53.568;13.266;2023-06-01T12:43:58;23.80;58.40
4425;DHT22;2225;53.568;13.266;2023-06-01T12:46:28;23.80;58.50
4425;DHT22;2225;53.568;13.266;2023-06-01T12:49:16;23.80;58.80
4425;DHT22;2225;53.568;13.266;2023-06-01T12:51:47;23.80;58.60
4425;DHT22;2225;53.568;13.266;2023-06-01T12:54:14;23.80;59.00
4425;DHT22;2225;53.568;13.266;2023-06-01T12:56:41;23.90;58.80
4425;DHT22;2225;53.568;13.266;2023-06-01T12:59:08;23.90;59.00
4425;DHT22;2225;53.568;13.266;2023-06-01T13:01:35;24.00;59.20
4425;DHT22;2225;53.568;13.266;2023-06-01T13:04:02;24.00;58.50
4425;DHT22;2225;53.568;13.266;2023-06-01T13:06:30;24.00;58.30
4425;DHT22;2225;53.568;13.266;2023-06-01T13:08:57;24.10;58.20
4425;DHT22;2225;53.568;13.266;2023-06-01T13:11:24;24.10;57.80
4425;DHT22;2225;53.568;13.266;2023-06-01T13:13:51;24.10;58.30
4425;DHT22;2225;53.568;13.266;2023-06-01T13:16:18;24.10;58.10
4425;DHT22;2225;53.568;13.266;2023-06-01T13:18:45;24.10;57.90
4425;DHT22;2225;53.568;13.266;2023-06-01T13:21:14;24.20;57.60
4425;DHT22;2225;53.568;13.266;2023-06-01T13:23:41;24.20;57.40
4425;DHT22;2225;53.568;13.266;2023-06-01T13:26:09;24.20;57.30
4425;DHT22;2225;53.568;13.266;2023-06-01T13:28:36;24.20;57.30
4425;DHT22;2225;53.568;13.266;2023-06-01T13:31:04;24.20;57.30
4425;DHT22;2225;53.568;13.266;2023-06-01T13:33:31;24.30;57.50
4425;DHT22;2225;53.568;13.266;2023-06-01T13:35:58;24.30;57.40
4425;DHT22;2225;53.568;13.266;2023-06-01T13:38:26;24.30;57.80
4425;DHT22;2225;53.568;13.266;2023-06-01T13:40:53;24.40;57.30
4425;DHT22;2225;53.568;13.266;2023-06-01T13:43:20;24.50;57.00
4425;DHT22;2225;53.568;13.266;2023-06-01T13:45:47;24.50;57.00
4425;DHT22;2225;53.568;13.266;2023-06-01T13:48:14;24.60;56.60
4425;DHT22;2225;53.568;13.266;2023-06-01T13:50:44;24.60;56.50
4425;DHT22;2225;53.568;13.266;2023-06-01T13:53:11;24.60;55.90
4425;DHT22;2225;53.568;13.266;2023-06-01T13:55:38;24.60;55.60
4425;DHT22;2225;53.568;13.266;2023-06-01T13:58:06;24.60;56.00
4425;DHT22;2225;53.568;13.266;2023-06-01T14:00:33;24.60;56.00
4425;DHT22;2225;53.568;13.266;2023-06-01T14:03:00;24.70;55.60
4425;DHT22;2225;53.568;13.266;2023-06-01T14:05:27;24.70;55.40
4425;DHT22;2225;53.568;13.266;2023-06-01T14:08:14;24.70;55.20
4425;DHT22;2225;53.568;13.266;2023-06-01T14:10:41;24.70;55.30
4425;DHT22;2225;53.568;13.266;2023-06-01T14:13:08;24.80;55.50
4425;DHT22;2225;53.568;13.266;2023-06-01T14:15:35;24.80;54.90
4425;DHT22;2225;53.568;13.266;2023-06-01T14:18:02;24.80;54.90
4425;DHT22;2225;53.568;13.266;2023-06-01T14:20:30;24.80;54.90
4425;DHT22;2225;53.568;13.266;2023-06-01T14:22:57;24.80;54.60
4425;DHT22;2225;53.568;13.266;2023-06-01T14:25:24;24.80;54.70
4425;DHT22;2225;53.568;13.266;2023-06-01T14:27:51;24.80;55.00
4425;DHT22;2225;53.568;13.266;2023-06-01T14:30:18;24.80;54.30
4425;DHT22;2225;53.568;13.266;2023-06-01T14:32:45;24.80;54.20
4425;DHT22;2225;53.568;13.266;2023-06-01T14:35:12;24.80;53.80
4425;DHT22;2225;53.568;13.266;2023-06-01T14:37:43;24.80;53.80
4425;DHT22;2225;53.568;13.266;2023-06-01T14:40:16;24.80;53.50
4425;DHT22;2225;53.568;13.266;2023-06-01T14:42:43;24.80;53.50
4425;DHT22;2225;53.568;13.266;2023-06-01T14:45:10;24.80;53.40
4425;DHT22;2225;53.568;13.266;2023-06-01T14:47:40;24.80;53.60
4425;DHT22;2225;53.568;13.266;2023-06-01T14:50:10;24.80;54.10
4425;DHT22;2225;53.568;13.266;2023-06-01T14:52:37;24.80;54.00
4425;DHT22;2225;53.568;13.266;2023-06-01T14:55:05;24.80;53.60
4425;DHT22;2225;53.568;13.266;2023-06-01T14:57:32;24.80;53.60
4425;DHT22;2225;53.568;13.266;2023-06-01T14:59:59;24.80;53.30
4425;DHT22;2225;53.568;13.266;2023-06-01T15:02:31;24.80;53.10
4425;DHT22;2225;53.568;13.266;2023-06-01T15:04:59;24.90;53.50
4425;DHT22;2225;53.568;13.266;2023-06-01T15:07:26;24.90;53.00
4425;DHT22;2225;53.568;13.266;2023-06-01T15:09:53;24.90;52.60
4425;DHT22;2225;53.568;13.266;2023-06-01T15:12:20;24.90;52.40
4425;DHT22;2225;53.568;13.266;2023-06-01T15:14:47;24.90;52.30
4425;DHT22;2225;53.568;13.266;2023-06-01T15:17:16;24.80;52.20
4425;DHT22;2225;53.568;13.266;2023-06-01T15:19:44;24.90;52.70
4425;DHT22;2225;53.568;13.266;2023-06-01T15:22:12;24.90;52.90
4425;DHT22;2225;53.568;13.266;2023-06-01T15:24:39;24.90;53.00
4425;DHT22;2225;53.568;13.266;2023-06-01T15:27:07;24.90;52.50
4425;DHT22;2225;53.568;13.266;2023-06-01T15:29:34;24.90;52.90
4425;DHT22;2225;53.568;13.266;2023-06-01T15:32:05;24.90;52.60
4425;DHT22;2225;53.568;13.266;2023-06-01T15:34:32;24.90;52.40
4425;DHT22;2225;53.568;13.266;2023-06-01T15:36:59;24.90;52.80
4425;DHT22;2225;53.568;13.266;2023-06-01T15:39:26;25.00;52.10
4425;DHT22;2225;53.568;13.266;2023-06-01T15:41:53;25.00;51.10
4425;DHT22;2225;53.568;13.266;2023-06-01T15:44:23;24.90;51.40
4425;DHT22;2225;53.568;13.266;2023-06-01T15:46:50;24.90;51.40
4425;DHT22;2225;53.568;13.266;2023-06-01T15:49:18;24.90;51.70
4425;DHT22;2225;53.568;13.266;2023-06-01T15:51:45;24.90;51.80
4425;DHT22;2225;53.568;13.266;2023-06-01T15:54:12;24.90;52.50
4425;DHT22;2225;53.568;13.266;2023-06-01T15:56:39;24.90;52.80
4425;DHT22;2225;53.568;13.266;2023-06-01T15:59:06;24.90;53.10
4425;DHT22;2225;53.568;13.266;2023-06-01T16:01:33;25.00;52.90
4425;DHT22;2225;53.568;13.266;2023-06-01T16:04:00;25.00;52.90
4425;DHT22;2225;53.568;13.266;2023-06-01T16:06:27;25.00;53.00
4425;DHT22;2225;53.568;13.266;2023-06-01T16:08:54;25.00;53.10
4425;DHT22;2225;53.568;13.266;2023-06-01T16:11:21;25.00;53.20
4425;DHT22;2225;53.568;13.266;2023-06-01T16:13:48;25.00;53.60
4425;DHT22;2225;53.568;13.266;2023-06-01T16:16:15;25.00;53.50
4425;DHT22;2225;53.568;13.266;2023-06-01T16:18:43;25.00;53.60
4425;DHT22;2225;53.568;13.266;2023-06-01T16:21:10;25.00;53.80
4425;DHT22;2225;53.568;13.266;2023-06-01T16:23:37;24.90;53.70
4425;DHT22;2225;53.568;13.266;2023-06-01T16:26:04;24.80;52.90
4425;DHT22;2225;53.568;13.266;2023-06-01T16:28:31;24.80;53.10
4425;DHT22;2225;53.568;13.266;2023-06-01T16:30:58;24.80;53.10
4425;DHT22;2225;53.568;13.266;2023-06-01T16:33:25;24.90;52.90